Terminal Aerodrome Forecast
Issued by NWS Upton, NY

Home | Current Version | Previous Version | Text Only | Print | Product List | Glossary On
Versions: 1 2 3 4 5 6 7 8 9 10 11 12 13 14 15 16 17 18 19 20 21 22 23 24 25 26 27 28 29 30 31 32
095
FTUS41 KOKX 101739
TAFLGA
TAF
KLGA 101739Z 1018/1118 29012G18KT P6SM SCT025 BKN035
     FM101900 28015G23KT P6SM BKN050
     FM110200 27012G18KT P6SM BKN080
     FM110800 29015G23KT P6SM OVC035 PROB30 1108/1112 P6SM -SHSN
      OVC025
     FM111200 29018G28KT P6SM BKN150
     FM111700 29022G32KT P6SM BKN050=

USA.gov is the U.S. government's official web portal to all federal, state and local government web resources and services.